createdAt,value
2022-10-05T00:00:25.289Z,5.03
2022-10-05T00:00:59.036Z,2.28
2022-10-05T00:01:31.586Z,3.75
2022-10-05T00:02:04.206Z,3.95
2022-10-05T00:02:35.645Z,4.83
2022-10-05T00:03:10.065Z,4.65
2022-10-05T00:03:41.484Z,3.63
2022-10-05T00:04:19.520Z,2.08
2022-10-05T00:04:55.587Z,3.78
2022-10-05T00:05:29.927Z,3.40
2022-10-05T00:06:01.477Z,3.10
2022-10-05T00:06:32.865Z,3.53
2022-10-05T00:07:09.572Z,4.40
2022-10-05T00:07:40.954Z,5.13
2022-10-05T00:08:20.079Z,3.20
2022-10-05T00:08:51.449Z,3.67
2022-10-05T00:09:22.999Z,2.58
2022-10-05T00:09:58.056Z,3.67
2022-10-05T00:10:29.617Z,5.40
2022-10-05T00:11:01.149Z,2.38
2022-10-05T00:11:32.590Z,2.72
2022-10-05T00:12:14.467Z,4.47
2022-10-05T00:12:46.789Z,4.07
2022-10-05T00:13:23.231Z,2.75
2022-10-05T00:13:54.622Z,3.35
2022-10-05T00:14:31.280Z,3.50
2022-10-05T00:15:10.037Z,3.63
2022-10-05T00:15:41.951Z,2.78
2022-10-05T00:16:16.110Z,4.20
2022-10-05T00:16:48.042Z,2.77
2022-10-05T00:17:23.528Z,4.57
2022-10-05T00:17:55.470Z,2.85
2022-10-05T00:18:27.007Z,3.80
2022-10-05T00:18:59.427Z,2.53
2022-10-05T00:19:32.135Z,4.68
2022-10-05T00:20:15.494Z,3.28
2022-10-05T00:20:47.708Z,4.57
2022-10-05T00:21:26.282Z,2.20
2022-10-05T00:22:06.093Z,2.20
2022-10-05T00:22:37.489Z,3.15
2022-10-05T00:23:14.090Z,3.35
2022-10-05T00:23:45.537Z,5.32
2022-10-05T00:24:18.737Z,3.42
2022-10-05T00:24:54.889Z,3.08
2022-10-05T00:25:26.443Z,4.40
2022-10-05T00:26:12.073Z,3.15
2022-10-05T00:26:43.657Z,3.40
2022-10-05T00:27:21.939Z,3.25
2022-10-05T00:28:00.254Z,2.75
2022-10-05T00:28:31.836Z,4.10
2022-10-05T00:29:08.804Z,4.13
2022-10-05T00:29:40.246Z,2.97
2022-10-05T00:30:14.711Z,3.50
2022-10-05T00:30:46.103Z,3.45
2022-10-05T00:31:19.530Z,3.90
2022-10-05T00:31:51.098Z,3.30
2022-10-05T00:32:22.598Z,1.55
2022-10-05T00:32:59.315Z,4.60
2022-10-05T00:33:31.072Z,2.85
2022-10-05T00:34:02.508Z,2.35
2022-10-05T00:34:34.296Z,4.18
2022-10-05T00:35:05.972Z,5.85
2022-10-05T00:35:37.419Z,2.75
2022-10-05T00:36:08.983Z,2.80
2022-10-05T00:36:40.714Z,3.75
2022-10-05T00:37:13.731Z,2.20
2022-10-05T00:37:45.893Z,2.17
2022-10-05T00:38:17.629Z,2.40
2022-10-05T00:38:49.368Z,2.80
2022-10-05T00:39:20.710Z,2.83
2022-10-05T00:39:52.041Z,3.40
2022-10-05T00:40:23.383Z,3.92
2022-10-05T00:41:02.295Z,2.55
2022-10-05T00:41:52.209Z,4.23
2022-10-05T00:42:44.300Z,4.45
2022-10-05T00:43:26.953Z,3.78
2022-10-05T00:44:09.528Z,3.10
2022-10-05T00:44:52.591Z,4.53
2022-10-05T00:45:25.622Z,3.58
2022-10-05T00:46:09.467Z,2.95
2022-10-05T00:46:40.845Z,3.00
2022-10-05T00:47:12.181Z,4.32
2022-10-05T00:48:02.300Z,2.38
2022-10-05T00:48:38.184Z,2.47
2022-10-05T00:49:21.406Z,3.70
2022-10-05T00:50:05.777Z,2.85
2022-10-05T00:50:55.410Z,2.85
2022-10-05T00:51:31.257Z,3.72
2022-10-05T00:52:16.243Z,3.22
2022-10-05T00:52:47.589Z,2.97
2022-10-05T00:53:24.809Z,2.67
2022-10-05T00:54:18.392Z,2.70
2022-10-05T00:55:16.323Z,3.03
2022-10-05T00:55:47.713Z,2.35
2022-10-05T00:56:39.317Z,3.33
2022-10-05T00:57:20.945Z,3.50
2022-10-05T00:57:55.094Z,3.47
2022-10-05T00:58:42.199Z,3.60
2022-10-05T00:59:32.389Z,3.50
2022-10-05T01:00:08.277Z,3.22
2022-10-05T01:01:02.719Z,6.15
2022-10-05T01:01:40.669Z,3.20
2022-10-05T01:02:14.915Z,2.70
2022-10-05T01:03:04.675Z,2.63
2022-10-05T01:03:56.317Z,3.00
2022-10-05T01:04:37.934Z,2.80
2022-10-05T01:05:14.202Z,4.07
2022-10-05T01:05:52.078Z,4.17
2022-10-05T01:06:41.994Z,3.33
2022-10-05T01:07:16.104Z,2.47
2022-10-05T01:07:50.555Z,4.68
2022-10-05T01:08:30.406Z,4.20
2022-10-05T01:09:20.570Z,3.30
2022-10-05T01:09:56.631Z,3.38
2022-10-05T01:10:27.952Z,2.55
2022-10-05T01:11:11.657Z,3.35
2022-10-05T01:11:50.238Z,3.60
2022-10-05T01:12:27.471Z,3.00
2022-10-05T01:12:58.793Z,2.30
2022-10-05T01:13:59.632Z,2.95
2022-10-05T01:14:39.958Z,4.55
2022-10-05T01:15:11.301Z,4.45
2022-10-05T01:15:46.386Z,3.70
2022-10-05T01:16:17.736Z,4.60
2022-10-05T01:16:56.044Z,3.55
2022-10-05T01:17:46.029Z,2.97
2022-10-05T01:18:36.255Z,2.70
2022-10-05T01:19:16.552Z,3.58
2022-10-05T01:19:47.882Z,6.43
2022-10-05T01:20:37.661Z,3.30
2022-10-05T01:21:22.865Z,4.17
2022-10-05T01:21:59.756Z,2.80
2022-10-05T01:22:40.175Z,3.80
2022-10-05T01:23:30.098Z,3.50
2022-10-05T01:24:20.131Z,3.33
2022-10-05T01:24:57.600Z,2.90
2022-10-05T01:25:48.392Z,4.07
2022-10-05T01:26:25.978Z,4.13
2022-10-05T01:27:18.950Z,2.13
2022-10-05T01:27:57.267Z,3.15
2022-10-05T01:28:33.081Z,3.00
2022-10-05T01:29:12.159Z,5.25
2022-10-05T01:29:58.043Z,3.60
2022-10-05T01:30:35.900Z,3.85
2022-10-05T01:31:13.076Z,4.28
2022-10-05T01:31:49.658Z,4.93
2022-10-05T01:32:27.135Z,4.25
2022-10-05T01:33:07.935Z,5.30
2022-10-05T01:33:46.458Z,6.63
2022-10-05T01:34:32.489Z,5.22
2022-10-05T01:35:19.021Z,4.75
2022-10-05T01:35:56.445Z,4.10
2022-10-05T01:36:31.882Z,4.13
2022-10-05T01:37:15.214Z,4.38
2022-10-05T01:38:07.363Z,2.97
2022-10-05T01:38:57.493Z,3.92
2022-10-05T01:39:45.217Z,5.25
2022-10-05T01:40:27.358Z,4.45
2022-10-05T01:41:13.087Z,4.00
2022-10-05T01:41:44.459Z,3.33
2022-10-05T01:42:18.613Z,3.70
2022-10-05T01:42:55.835Z,4.40
2022-10-05T01:43:35.929Z,2.27
2022-10-05T01:44:15.397Z,3.53
2022-10-05T01:44:52.827Z,3.33
2022-10-05T01:45:42.553Z,2.83
2022-10-05T01:46:22.844Z,2.47
2022-10-05T01:46:54.219Z,2.95
2022-10-05T01:47:44.150Z,4.93
2022-10-05T01:48:22.446Z,4.57
2022-10-05T01:49:07.912Z,2.60
2022-10-05T01:50:01.162Z,3.50
2022-10-05T01:50:52.204Z,2.15
2022-10-05T01:51:35.677Z,3.80
2022-10-05T01:52:22.328Z,2.88
2022-10-05T01:53:16.704Z,3.67
2022-10-05T01:54:06.870Z,3.30
2022-10-05T01:54:52.138Z,3.30
2022-10-05T01:55:34.881Z,2.50
2022-10-05T01:56:06.477Z,4.65
2022-10-05T01:56:40.948Z,3.88
2022-10-05T01:57:12.275Z,3.28
2022-10-05T01:58:01.888Z,4.18
2022-10-05T01:58:39.368Z,3.88
2022-10-05T01:59:19.913Z,2.50
2022-10-05T01:59:57.355Z,3.50
2022-10-05T02:00:29.663Z,3.55
2022-10-05T02:01:11.159Z,2.20
2022-10-05T02:01:42.609Z,3.25
2022-10-05T02:02:18.850Z,2.77
2022-10-05T02:03:02.480Z,2.83
2022-10-05T02:03:43.657Z,4.90
2022-10-05T02:04:42.772Z,2.95
2022-10-05T02:05:09.225Z,2.33
2022-10-05T02:05:48.376Z,2.45
2022-10-05T02:06:23.094Z,4.15
2022-10-05T02:06:54.469Z,3.00
2022-10-05T02:07:47.984Z,3.70
2022-10-05T02:08:24.442Z,3.50
2022-10-05T02:09:03.238Z,2.88
2022-10-05T02:09:39.603Z,2.65
2022-10-05T02:10:19.940Z,2.88
2022-10-05T02:11:08.121Z,3.20
2022-10-05T02:11:40.738Z,2.05
2022-10-05T02:12:13.918Z,2.60
2022-10-05T02:12:46.176Z,2.97
2022-10-05T02:13:21.331Z,3.20
2022-10-05T02:14:22.077Z,1.95
2022-10-05T02:14:58.214Z,4.05
2022-10-05T02:15:37.228Z,2.38
2022-10-05T02:16:13.836Z,2.50
2022-10-05T02:16:49.129Z,2.22
2022-10-05T02:17:24.304Z,2.63
2022-10-05T02:18:04.395Z,2.72
2022-10-05T02:18:47.293Z,3.43
2022-10-05T02:19:21.618Z,2.33
2022-10-05T02:19:58.153Z,3.90
2022-10-05T02:20:31.587Z,5.47
2022-10-05T02:21:04.105Z,2.33
2022-10-05T02:21:36.407Z,2.75
2022-10-05T02:22:16.246Z,2.97
2022-10-05T02:22:49.671Z,2.72
2022-10-05T02:23:23.890Z,3.10
2022-10-05T02:23:57.407Z,2.72
2022-10-05T02:24:30.486Z,2.38
2022-10-05T02:25:05.409Z,3.40
2022-10-05T02:25:38.123Z,4.50
2022-10-05T02:26:10.995Z,2.40
2022-10-05T02:26:42.386Z,3.05
2022-10-05T02:27:15.419Z,2.55
2022-10-05T02:27:49.666Z,5.53
2022-10-05T02:28:39.981Z,2.30
2022-10-05T02:29:13.271Z,3.83
2022-10-05T02:29:45.987Z,3.78
2022-10-05T02:30:17.961Z,2.60
2022-10-05T02:30:58.689Z,3.15
2022-10-05T02:31:30.084Z,2.17
2022-10-05T02:32:07.033Z,2.92
2022-10-05T02:32:44.791Z,1.70
2022-10-05T02:33:23.384Z,2.53
2022-10-05T02:34:13.254Z,3.60
2022-10-05T02:34:44.629Z,1.58
2022-10-05T02:35:18.236Z,3.83
2022-10-05T02:35:49.561Z,2.35
2022-10-05T02:36:25.919Z,2.97
2022-10-05T02:37:07.180Z,2.50
2022-10-05T02:37:41.284Z,4.28
2022-10-05T02:38:18.866Z,3.17
2022-10-05T02:38:50.250Z,2.10
2022-10-05T02:39:29.883Z,3.28
2022-10-05T02:40:20.113Z,3.25
2022-10-05T02:40:56.869Z,2.38
2022-10-05T02:42:06.660Z,4.43
2022-10-05T02:42:47.228Z,2.45
2022-10-05T02:43:32.882Z,4.82
2022-10-05T02:44:29.422Z,2.50
2022-10-05T02:45:00.791Z,3.08
2022-10-05T02:45:41.318Z,3.03
2022-10-05T02:46:22.197Z,4.03
2022-10-05T02:46:57.185Z,3.60
2022-10-05T02:47:53.541Z,3.53
2022-10-05T02:48:24.893Z,4.03
2022-10-05T02:49:20.164Z,4.80
2022-10-05T02:50:00.722Z,4.70
2022-10-05T02:50:38.203Z,4.25
2022-10-05T02:51:09.590Z,3.03
2022-10-05T02:51:43.744Z,3.22
2022-10-05T02:52:23.261Z,3.70
2022-10-05T02:52:54.659Z,3.70
2022-10-05T02:53:26.058Z,3.00
2022-10-05T02:54:06.352Z,3.10
2022-10-05T02:54:46.930Z,4.32
2022-10-05T02:55:19.910Z,3.50
2022-10-05T02:55:51.243Z,5.57
2022-10-05T02:56:22.598Z,3.00
2022-10-05T02:57:12.708Z,2.83
2022-10-05T02:57:52.339Z,4.30
2022-10-05T02:58:26.997Z,3.90
2022-10-05T02:59:10.581Z,4.57
2022-10-05T02:59:51.029Z,4.30
2022-10-05T03:00:23.889Z,4.25
2022-10-05T03:01:02.081Z,5.20
2022-10-05T03:01:43.667Z,3.63
2022-10-05T03:02:18.950Z,2.90
2022-10-05T03:02:53.307Z,3.03
2022-10-05T03:03:27.646Z,4.25
2022-10-05T03:04:02.108Z,4.40
2022-10-05T03:04:36.529Z,2.67
2022-10-05T03:05:10.970Z,4.13
2022-10-05T03:05:50.825Z,3.20
2022-10-05T03:06:25.431Z,4.67
2022-10-05T03:07:11.858Z,2.55
2022-10-05T03:08:05.008Z,3.67
2022-10-05T03:08:46.848Z,4.07
2022-10-05T03:09:20.535Z,3.15
2022-10-05T03:10:04.602Z,2.95
2022-10-05T03:10:35.960Z,2.75
2022-10-05T03:11:11.179Z,3.85
2022-10-05T03:11:45.535Z,4.13
2022-10-05T03:12:16.860Z,3.92
2022-10-05T03:13:00.553Z,3.35
2022-10-05T03:13:50.003Z,3.28
2022-10-05T03:14:26.053Z,3.20
2022-10-05T03:15:10.832Z,4.35
2022-10-05T03:15:45.457Z,2.35
2022-10-05T03:16:32.235Z,3.67
2022-10-05T03:17:06.755Z,2.40
2022-10-05T03:17:44.813Z,4.13
2022-10-05T03:18:16.189Z,2.28
2022-10-05T03:19:05.956Z,2.65
2022-10-05T03:19:56.336Z,4.40
2022-10-05T03:20:40.422Z,2.83
2022-10-05T03:21:11.762Z,1.85
2022-10-05T03:21:58.461Z,3.72
2022-10-05T03:22:32.916Z,4.67
2022-10-05T03:23:04.874Z,4.88
2022-10-05T03:23:39.132Z,2.97
2022-10-05T03:24:10.549Z,2.17
2022-10-05T03:25:04.927Z,5.60
2022-10-05T03:25:44.151Z,3.22
2022-10-05T03:26:21.569Z,4.05
2022-10-05T03:27:11.542Z,3.15
2022-10-05T03:27:52.603Z,2.17
2022-10-05T03:28:29.709Z,3.30
2022-10-05T03:29:20.824Z,3.55
2022-10-05T03:30:04.414Z,3.03
2022-10-05T03:30:42.400Z,3.50
2022-10-05T03:31:13.796Z,3.65
2022-10-05T03:31:48.695Z,3.33
2022-10-05T03:32:27.195Z,3.75
2022-10-05T03:33:03.193Z,3.53
2022-10-05T03:33:34.545Z,4.65
2022-10-05T03:34:17.894Z,2.08
2022-10-05T03:34:54.148Z,2.55
2022-10-05T03:35:30.821Z,2.30
2022-10-05T03:36:08.493Z,2.78
2022-10-05T03:37:00.605Z,2.88
2022-10-05T03:37:34.711Z,4.18
2022-10-05T03:38:20.124Z,3.15
2022-10-05T03:38:57.348Z,2.17
2022-10-05T03:39:40.577Z,2.65
2022-10-05T03:40:22.497Z,2.60
2022-10-05T03:40:53.891Z,3.90
2022-10-05T03:41:31.423Z,2.47
2022-10-05T03:42:08.927Z,3.38
2022-10-05T03:42:52.466Z,2.72
2022-10-05T03:43:26.881Z,2.83
2022-10-05T03:43:58.209Z,3.10
2022-10-05T03:44:55.857Z,3.38
2022-10-05T03:45:33.290Z,1.92
2022-10-05T03:46:04.653Z,2.40
2022-10-05T03:46:44.479Z,3.00
2022-10-05T03:47:22.282Z,2.90
2022-10-05T03:48:11.428Z,4.07
2022-10-05T03:48:48.659Z,3.75
2022-10-05T03:49:40.271Z,2.70
2022-10-05T03:50:11.623Z,3.25
2022-10-05T03:50:43.051Z,3.83
2022-10-05T03:51:23.247Z,3.72
2022-10-05T03:52:05.069Z,2.22
2022-10-05T03:52:38.710Z,4.43
2022-10-05T03:53:23.716Z,2.90
2022-10-05T03:54:03.043Z,4.82
2022-10-05T03:54:36.423Z,2.83
2022-10-05T03:55:24.412Z,3.53
2022-10-05T03:56:06.413Z,3.28
2022-10-05T03:56:40.888Z,2.53
2022-10-05T03:57:23.182Z,4.53
2022-10-05T03:57:56.474Z,2.67
2022-10-05T03:58:31.856Z,4.50
2022-10-05T03:59:12.122Z,3.25
2022-10-05T03:59:55.463Z,4.65
2022-10-05T04:00:28.113Z,3.90
2022-10-05T04:01:03.716Z,4.15
2022-10-05T04:01:41.601Z,4.10
2022-10-05T04:02:18.256Z,2.00
2022-10-05T04:02:54.218Z,3.38
2022-10-05T04:03:30.195Z,4.00
2022-10-05T04:04:04.333Z,1.88
2022-10-05T04:04:54.625Z,1.55
2022-10-05T04:05:35.604Z,3.00
2022-10-05T04:06:17.829Z,5.30
2022-10-05T04:06:50.587Z,3.05
2022-10-05T04:07:32.177Z,4.72
2022-10-05T04:08:18.396Z,2.70
2022-10-05T04:09:01.200Z,3.60
2022-10-05T04:09:36.433Z,3.00
2022-10-05T04:10:12.949Z,3.05
2022-10-05T04:10:47.069Z,3.83
2022-10-05T04:11:21.285Z,4.32
2022-10-05T04:11:52.688Z,2.50
2022-10-05T04:12:25.865Z,2.20
2022-10-05T04:13:06.896Z,2.80
2022-10-05T04:13:57.038Z,2.42
2022-10-05T04:14:38.261Z,3.10
2022-10-05T04:15:19.209Z,2.45
2022-10-05T04:15:57.714Z,2.30
2022-10-05T04:16:31.416Z,2.92
2022-10-05T04:17:08.889Z,3.72
2022-10-05T04:17:42.685Z,4.20
2022-10-05T04:18:17.094Z,2.97
2022-10-05T04:18:50.588Z,3.88
2022-10-05T04:19:23.559Z,2.28
2022-10-05T04:19:58.992Z,3.25
2022-10-05T04:20:41.629Z,3.65
2022-10-05T04:21:26.145Z,2.47
2022-10-05T04:22:05.801Z,2.75
2022-10-05T04:22:39.047Z,2.80
2022-10-05T04:23:10.369Z,4.63
2022-10-05T04:23:41.707Z,2.50
2022-10-05T04:24:22.428Z,4.35
2022-10-05T04:25:08.043Z,3.60
2022-10-05T04:25:53.545Z,2.70
2022-10-05T04:26:29.633Z,3.75
2022-10-05T04:27:04.254Z,3.75
2022-10-05T04:27:40.249Z,2.28
2022-10-05T04:28:16.101Z,3.10
2022-10-05T04:28:55.927Z,2.63
2022-10-05T04:29:31.002Z,2.63
2022-10-05T04:30:06.939Z,3.35
2022-10-05T04:30:39.864Z,5.05
2022-10-05T04:31:13.549Z,3.55
2022-10-05T04:31:51.264Z,3.38
2022-10-05T04:32:29.949Z,3.45
2022-10-05T04:33:01.841Z,2.58
2022-10-05T04:33:33.223Z,2.75
2022-10-05T04:34:10.906Z,3.83
2022-10-05T04:34:51.099Z,2.83
2022-10-05T04:35:25.582Z,4.45
2022-10-05T04:36:02.843Z,4.95
2022-10-05T04:36:40.671Z,3.97
2022-10-05T04:37:18.205Z,3.10
2022-10-05T04:37:52.664Z,2.83
2022-10-05T04:38:37.196Z,3.45
2022-10-05T04:39:11.363Z,3.80
2022-10-05T04:39:52.164Z,3.72
2022-10-05T04:40:23.555Z,3.63
2022-10-05T04:41:13.112Z,3.88
2022-10-05T04:41:59.760Z,3.92
2022-10-05T04:42:35.602Z,4.13
2022-10-05T04:43:09.954Z,4.80
2022-10-05T04:43:53.676Z,4.30
2022-10-05T04:44:45.181Z,4.18
2022-10-05T04:45:35.060Z,3.72
2022-10-05T04:46:24.875Z,4.60
2022-10-05T04:47:14.537Z,4.30
2022-10-05T04:47:53.409Z,5.80
2022-10-05T04:48:30.727Z,4.55
2022-10-05T04:49:20.641Z,3.03
2022-10-05T04:49:51.981Z,3.70
2022-10-05T04:50:28.442Z,4.10
2022-10-05T04:51:02.660Z,7.22
2022-10-05T04:51:36.840Z,4.78
2022-10-05T04:52:14.310Z,3.75
2022-10-05T04:52:58.006Z,6.10
2022-10-05T04:53:33.479Z,3.20
2022-10-05T04:54:13.822Z,3.25
2022-10-05T04:55:03.741Z,3.85
2022-10-05T04:55:35.082Z,5.25
2022-10-05T04:56:17.240Z,3.17
2022-10-05T04:56:52.590Z,4.88
2022-10-05T04:57:27.562Z,5.57
2022-10-05T04:58:17.587Z,3.45
2022-10-05T04:59:07.764Z,3.70
2022-10-05T04:59:54.973Z,6.30
2022-10-05T05:00:28.248Z,4.18
2022-10-05T05:01:05.500Z,4.82
2022-10-05T05:01:55.451Z,6.80
2022-10-05T05:02:33.279Z,5.93
2022-10-05T05:03:13.478Z,5.20
2022-10-05T05:03:48.028Z,5.15
2022-10-05T05:04:22.306Z,7.20
2022-10-05T05:04:53.696Z,5.40
2022-10-05T05:05:31.570Z,4.32
2022-10-05T05:06:21.484Z,4.70
2022-10-05T05:06:55.991Z,4.25
2022-10-05T05:07:45.961Z,5.25
2022-10-05T05:08:41.624Z,5.40
2022-10-05T05:09:31.813Z,5.80
2022-10-05T05:10:05.971Z,5.20
2022-10-05T05:10:43.916Z,4.72
2022-10-05T05:11:23.746Z,4.70
2022-10-05T05:12:11.138Z,5.28
2022-10-05T05:12:42.473Z,5.70
2022-10-05T05:13:13.865Z,4.80
2022-10-05T05:14:00.593Z,6.57
2022-10-05T05:14:44.229Z,7.35
2022-10-05T05:15:18.682Z,4.50
2022-10-05T05:15:58.756Z,5.72
2022-10-05T05:16:38.557Z,7.07
2022-10-05T05:17:23.457Z,6.35
2022-10-05T05:17:54.803Z,7.20
2022-10-05T05:18:34.535Z,7.93
2022-10-05T05:19:12.782Z,6.28
2022-10-05T05:19:44.169Z,6.75
2022-10-05T05:20:33.631Z,5.95
2022-10-05T05:21:14.120Z,7.10
2022-10-05T05:21:53.409Z,6.97
2022-10-05T05:22:36.764Z,7.15
2022-10-05T05:23:26.886Z,5.47
2022-10-05T05:24:15.472Z,6.55
2022-10-05T05:24:52.942Z,5.80
2022-10-05T05:25:30.224Z,6.10
2022-10-05T05:26:12.127Z,7.45
2022-10-05T05:26:46.665Z,7.57
2022-10-05T05:27:33.472Z,9.68
2022-10-05T05:28:04.848Z,8.18
2022-10-05T05:28:38.984Z,9.03
2022-10-05T05:29:13.152Z,11.37
2022-10-05T05:29:47.563Z,11.38
2022-10-05T05:30:20.540Z,8.03
2022-10-05T05:31:21.173Z,8.07
2022-10-05T05:32:04.745Z,7.22
2022-10-05T05:33:01.357Z,8.38
2022-10-05T05:33:40.218Z,9.13
2022-10-05T05:34:17.451Z,8.07
2022-10-05T05:35:24.477Z,9.70
2022-10-05T05:35:58.621Z,9.80
2022-10-05T05:36:32.769Z,9.25
2022-10-05T05:37:06.937Z,7.80
2022-10-05T05:37:49.256Z,8.75
2022-10-05T05:38:26.591Z,8.70
2022-10-05T05:39:16.414Z,7.93
2022-10-05T05:40:00.288Z,8.20
2022-10-05T05:40:36.121Z,10.65
2022-10-05T05:41:09.827Z,9.27
2022-10-05T05:41:56.622Z,9.15
2022-10-05T05:42:31.077Z,8.27
2022-10-05T05:43:18.077Z,9.00
2022-10-05T05:44:15.630Z,8.38
2022-10-05T05:44:51.510Z,9.15
2022-10-05T05:45:22.862Z,9.52
2022-10-05T05:45:54.203Z,7.60
2022-10-05T05:46:45.010Z,6.57
2022-10-05T05:47:30.633Z,8.90
2022-10-05T05:48:04.182Z,8.27
2022-10-05T05:48:40.299Z,9.73
2022-10-05T05:49:31.951Z,6.78
2022-10-05T05:50:07.255Z,8.32
2022-10-05T05:50:45.380Z,11.30
2022-10-05T05:51:35.389Z,8.70
2022-10-05T05:52:12.159Z,7.87
2022-10-05T05:52:46.921Z,10.05
2022-10-05T05:53:25.240Z,8.00
2022-10-05T05:54:14.673Z,9.88
2022-10-05T05:54:51.212Z,8.05
2022-10-05T05:55:27.741Z,7.53
2022-10-05T05:56:06.691Z,9.45
2022-10-05T05:56:40.377Z,7.55
2022-10-05T05:57:30.572Z,7.75
2022-10-05T05:58:17.210Z,10.50
2022-10-05T05:58:56.584Z,7.20
2022-10-05T05:59:30.739Z,8.10
2022-10-05T06:00:02.076Z,9.07
2022-10-05T06:00:37.758Z,7.35
2022-10-05T06:01:30.756Z,9.13
2022-10-05T06:02:15.797Z,10.75
2022-10-05T06:02:53.373Z,7.75
2022-10-05T06:03:30.259Z,10.57
2022-10-05T06:04:10.751Z,7.47
2022-10-05T06:04:44.948Z,8.07
2022-10-05T06:05:34.923Z,9.57
2022-10-05T06:06:09.693Z,10.40
2022-10-05T06:06:44.614Z,8.02
2022-10-05T06:07:18.875Z,9.63
2022-10-05T06:07:51.234Z,10.50
2022-10-05T06:08:26.044Z,7.75
2022-10-05T06:08:58.200Z,8.40
2022-10-05T06:09:39.565Z,9.23
2022-10-05T06:10:26.263Z,8.02
2022-10-05T06:10:59.693Z,7.38
2022-10-05T06:11:43.012Z,7.82
2022-10-05T06:12:16.501Z,9.18
2022-10-05T06:12:49.519Z,8.43
2022-10-05T06:13:47.118Z,9.88
2022-10-05T06:14:31.818Z,8.68
2022-10-05T06:15:03.149Z,12.13
2022-10-05T06:16:10.158Z,12.98
2022-10-05T06:16:44.512Z,12.90
2022-10-05T06:17:16.090Z,12.10
2022-10-05T06:17:50.202Z,10.75
2022-10-05T06:18:22.311Z,11.52
2022-10-05T06:19:04.615Z,9.60
2022-10-05T06:19:36.777Z,10.87
2022-10-05T06:20:24.164Z,10.60
2022-10-05T06:21:04.481Z,8.83
2022-10-05T06:21:39.674Z,10.88
2022-10-05T06:22:19.969Z,14.63
2022-10-05T06:22:52.185Z,12.02
2022-10-05T06:23:27.097Z,11.25
2022-10-05T06:23:58.426Z,10.00
2022-10-05T06:24:32.561Z,12.00
2022-10-05T06:25:13.075Z,11.82
2022-10-05T06:26:05.993Z,7.70
2022-10-05T06:26:59.464Z,11.30
2022-10-05T06:27:33.766Z,12.85
2022-10-05T06:28:15.324Z,10.88
2022-10-05T06:28:52.526Z,9.80
2022-10-05T06:29:24.969Z,11.30
2022-10-05T06:30:03.599Z,10.93
2022-10-05T06:30:53.705Z,13.63
2022-10-05T06:31:30.860Z,8.65
2022-10-05T06:32:05.822Z,11.48
2022-10-05T06:32:55.748Z,8.10
2022-10-05T06:33:41.630Z,10.00
2022-10-05T06:34:25.014Z,10.85
2022-10-05T06:35:14.975Z,9.73
2022-10-05T06:35:52.449Z,7.68
2022-10-05T06:36:43.353Z,7.35
2022-10-05T06:37:33.894Z,9.52
2022-10-05T06:38:08.019Z,8.65
2022-10-05T06:38:42.393Z,10.57
2022-10-05T06:39:22.839Z,9.02
2022-10-05T06:40:05.630Z,10.77
2022-10-05T06:40:55.481Z,10.32
2022-10-05T06:41:26.828Z,9.93
2022-10-05T06:42:00.979Z,9.57
2022-10-05T06:42:39.784Z,8.90
2022-10-05T06:43:34.116Z,11.02
2022-10-05T06:44:22.263Z,7.72
2022-10-05T06:44:56.401Z,10.68
2022-10-05T06:45:35.085Z,12.07
2022-10-05T06:46:12.702Z,10.60
2022-10-05T06:47:00.096Z,11.50
2022-10-05T06:47:31.495Z,11.98
2022-10-05T06:48:05.331Z,11.10
2022-10-05T06:48:58.948Z,8.13
2022-10-05T06:49:53.363Z,10.60
2022-10-05T06:50:32.471Z,11.18
2022-10-05T06:51:08.297Z,9.70
2022-10-05T06:51:45.756Z,12.70
2022-10-05T06:52:31.267Z,13.30
2022-10-05T06:53:10.544Z,11.57
2022-10-05T06:54:00.400Z,12.40
2022-10-05T06:54:50.322Z,12.40
2022-10-05T06:55:21.620Z,13.15
2022-10-05T06:55:55.723Z,11.88
2022-10-05T06:56:31.666Z,9.95
2022-10-05T06:57:15.331Z,9.25
2022-10-05T06:58:13.023Z,13.18
2022-10-05T06:58:44.342Z,12.23
2022-10-05T06:59:25.127Z,13.27
2022-10-05T07:00:00.592Z,12.05
2022-10-05T07:00:38.603Z,9.32
2022-10-05T07:01:15.282Z,11.25
2022-10-05T07:02:02.110Z,10.77
2022-10-05T07:02:48.307Z,7.20
2022-10-05T07:03:19.658Z,10.48
2022-10-05T07:03:53.869Z,9.17
2022-10-05T07:04:37.120Z,9.87
2022-10-05T07:05:21.586Z,11.50
2022-10-05T07:05:58.853Z,10.38
2022-10-05T07:06:42.376Z,11.02
2022-10-05T07:07:22.948Z,11.88
2022-10-05T07:07:54.266Z,10.50
2022-10-05T07:08:28.603Z,10.93
2022-10-05T07:09:06.156Z,12.30
2022-10-05T07:09:37.495Z,11.35
2022-10-05T07:10:26.739Z,9.30
2022-10-05T07:10:58.062Z,12.38
2022-10-05T07:11:29.359Z,9.25
2022-10-05T07:12:04.842Z,10.40
2022-10-05T07:12:45.607Z,10.63
2022-10-05T07:13:29.180Z,10.40
2022-10-05T07:14:25.201Z,8.73
2022-10-05T07:15:01.862Z,8.27
2022-10-05T07:15:39.365Z,8.85
2022-10-05T07:16:22.937Z,9.90
2022-10-05T07:16:57.089Z,10.83
2022-10-05T07:17:50.695Z,9.65
2022-10-05T07:18:40.955Z,7.93
2022-10-05T07:19:22.005Z,8.00
2022-10-05T07:19:53.314Z,8.52
2022-10-05T07:20:29.946Z,12.18
2022-10-05T07:21:10.512Z,11.00
2022-10-05T07:21:55.287Z,8.90
2022-10-05T07:22:35.447Z,11.20
2022-10-05T07:23:20.776Z,8.82
2022-10-05T07:23:52.091Z,10.93
2022-10-05T07:24:34.583Z,8.13
2022-10-05T07:25:18.153Z,9.20
2022-10-05T07:25:55.463Z,8.85
2022-10-05T07:26:29.639Z,10.90
2022-10-05T07:27:00.964Z,11.65
2022-10-05T07:27:33.830Z,12.60
2022-10-05T07:28:12.079Z,9.93
2022-10-05T07:28:46.219Z,8.75
2022-10-05T07:29:20.618Z,10.63
2022-10-05T07:29:51.932Z,8.13
2022-10-05T07:30:23.489Z,12.25
2022-10-05T07:30:57.114Z,8.60
2022-10-05T07:31:31.536Z,11.93
2022-10-05T07:32:09.656Z,8.60
2022-10-05T07:32:47.137Z,8.68
2022-10-05T07:33:24.048Z,8.10
2022-10-05T07:33:58.361Z,11.35
2022-10-05T07:34:29.678Z,12.65
2022-10-05T07:35:04.206Z,10.55
2022-10-05T07:35:35.536Z,9.60
2022-10-05T07:36:13.772Z,7.82
2022-10-05T07:36:54.613Z,9.45
2022-10-05T07:37:35.652Z,10.85
2022-10-05T07:38:20.231Z,10.97
2022-10-05T07:38:59.497Z,12.43
2022-10-05T07:39:58.556Z,9.98
2022-10-05T07:40:32.452Z,11.38
2022-10-05T07:41:09.206Z,10.82
2022-10-05T07:41:51.656Z,9.50
2022-10-05T07:42:28.933Z,10.45
2022-10-05T07:43:03.294Z,10.25
2022-10-05T07:44:00.584Z,10.60
2022-10-05T07:44:46.247Z,9.63
2022-10-05T07:45:36.244Z,11.15
2022-10-05T07:46:26.319Z,11.05
2022-10-05T07:47:00.405Z,8.98
2022-10-05T07:47:35.540Z,12.60
2022-10-05T07:48:15.902Z,8.82
2022-10-05T07:48:47.215Z,12.52
2022-10-05T07:49:23.118Z,11.77
2022-10-05T07:49:56.785Z,10.63
2022-10-05T07:50:38.687Z,7.95
2022-10-05T07:51:23.476Z,11.77
2022-10-05T07:52:02.251Z,9.55
2022-10-05T07:52:36.767Z,9.18
2022-10-05T07:53:16.093Z,12.63
2022-10-05T07:53:53.753Z,11.00
2022-10-05T07:54:37.549Z,9.63
2022-10-05T07:55:12.008Z,9.77
2022-10-05T07:56:06.677Z,9.52
2022-10-05T07:56:40.308Z,11.30
2022-10-05T07:57:17.578Z,8.80
2022-10-05T07:57:48.889Z,9.25
2022-10-05T07:58:26.176Z,11.02
2022-10-05T07:58:59.689Z,13.57
2022-10-05T07:59:53.827Z,13.57
2022-10-05T08:00:27.294Z,10.30
2022-10-05T08:01:27.996Z,9.25
2022-10-05T08:02:09.657Z,11.38
2022-10-05T08:02:47.254Z,12.83
2022-10-05T08:03:37.265Z,11.98
2022-10-05T08:04:12.339Z,10.85
2022-10-05T08:04:52.008Z,10.68
2022-10-05T08:05:28.547Z,9.75
2022-10-05T08:06:00.977Z,12.10
2022-10-05T08:06:38.791Z,11.68
2022-10-05T08:07:12.968Z,11.05
2022-10-05T08:07:45.524Z,13.20
2022-10-05T08:08:20.540Z,15.50
2022-10-05T08:08:58.798Z,9.95
2022-10-05T08:09:38.942Z,12.18
2022-10-05T08:10:13.273Z,9.85
2022-10-05T08:10:51.918Z,12.15
2022-10-05T08:11:26.261Z,11.15
2022-10-05T08:12:16.237Z,11.27
2022-10-05T08:12:54.948Z,12.80
2022-10-05T08:13:34.542Z,11.05
2022-10-05T08:14:13.953Z,10.15
2022-10-05T08:14:52.720Z,11.50
2022-10-05T08:15:27.816Z,10.48
2022-10-05T08:16:01.664Z,12.27
2022-10-05T08:16:35.081Z,11.45
2022-10-05T08:17:11.750Z,11.73
2022-10-05T08:17:43.069Z,9.73
2022-10-05T08:18:19.082Z,12.47
2022-10-05T08:18:50.434Z,9.25
2022-10-05T08:19:43.399Z,10.15
2022-10-05T08:20:17.484Z,12.02
2022-10-05T08:20:58.461Z,10.73
2022-10-05T08:21:45.348Z,12.43
2022-10-05T08:22:25.087Z,12.43
2022-10-05T08:23:02.389Z,11.52
2022-10-05T08:23:36.244Z,10.95
2022-10-05T08:24:32.507Z,10.88
2022-10-05T08:25:05.833Z,9.38
2022-10-05T08:26:03.323Z,11.38
2022-10-05T08:26:53.266Z,12.27
2022-10-05T08:27:33.539Z,11.77
2022-10-05T08:28:08.916Z,12.93
2022-10-05T08:28:45.569Z,12.07
2022-10-05T08:29:34.745Z,9.73
2022-10-05T08:30:08.922Z,12.43
2022-10-05T08:30:50.565Z,12.07
2022-10-05T08:31:35.629Z,11.07
2022-10-05T08:32:23.175Z,12.27
2022-10-05T08:33:05.488Z,10.00
2022-10-05T08:33:54.921Z,12.20
2022-10-05T08:34:29.431Z,12.98
2022-10-05T08:35:19.508Z,13.10
2022-10-05T08:36:01.589Z,8.70
2022-10-05T08:36:36.000Z,13.55
2022-10-05T08:37:25.907Z,13.93
2022-10-05T08:37:57.758Z,11.55
2022-10-05T08:38:31.550Z,11.98
2022-10-05T08:39:04.447Z,11.88